Time;durP1;ratioP1;P1;durP2;ratioP2;P2;SDS_P1;SDS_P2;PMS_P1;PMS_P2;Temp;Humidity;BMP_temperature;BMP_pressure;BME280_temperature;BME280_humidity;BME280_pressure;Samples;Min_cycle;Max_cycle;Signal;HPM_P1;HPM_P2
2022/04/15 00:02:21;;;;;;;4.90;2.10;;;19.50;99.90;;;;;;5060246;28;20682;-80
2022/04/15 00:04:48;;;;;;;5.47;2.30;;;19.60;99.90;;;;;;5071044;28;20428;-77
2022/04/15 00:07:15;;;;;;;4.00;2.13;;;19.80;99.90;;;;;;5064774;28;20404;-80
2022/04/15 00:09:42;;;;;;;3.77;2.10;;;19.90;99.90;;;;;;5053071;28;20408;-80
2022/04/15 00:12:17;;;;;;;3.10;1.50;;;20.00;99.90;;;;;;5053857;28;20923;-79
2022/04/15 00:14:45;;;;;;;5.00;1.80;;;20.10;99.90;;;;;;5053988;28;20419;-80
2022/04/15 00:17:12;;;;;;;5.00;1.60;;;20.20;99.90;;;;;;5052743;28;20847;-79
2022/04/15 00:19:39;;;;;;;3.80;1.60;;;20.20;99.90;;;;;;5052767;28;20930;-79
2022/04/15 00:22:06;;;;;;;5.00;1.48;;;20.30;99.90;;;;;;5052552;28;20389;-80
2022/04/15 00:24:33;;;;;;;5.40;1.10;;;20.40;99.90;;;;;;5052766;28;20867;-78
2022/04/15 00:27:00;;;;;;;4.65;1.58;;;20.70;99.90;;;;;;5052096;28;20447;-79
2022/04/15 00:29:28;;;;;;;4.35;1.00;;;20.70;99.90;;;;;;5052891;28;20383;-80
2022/04/15 00:31:55;;;;;;;5.53;1.48;;;20.70;99.90;;;;;;5052570;28;20748;-78
2022/04/15 00:34:22;;;;;;;4.45;1.48;;;20.80;99.90;;;;;;5053843;28;20787;-80
2022/04/15 00:36:49;;;;;;;4.13;1.58;;;20.80;99.90;;;;;;5066591;28;20401;-80
2022/04/15 00:39:16;;;;;;;3.90;1.30;;;20.90;99.90;;;;;;5052492;28;20525;-79
2022/04/15 00:41:43;;;;;;;5.65;1.60;;;21.10;99.90;;;;;;5059748;28;20386;-80
2022/04/15 00:44:10;;;;;;;4.87;1.50;;;21.20;99.90;;;;;;5072664;28;20377;-79
2022/04/15 00:46:37;;;;;;;3.92;1.45;;;21.30;99.90;;;;;;5046920;28;20408;-81
2022/04/15 00:49:04;;;;;;;4.73;1.40;;;21.40;99.90;;;;;;5060522;28;20535;-81
2022/04/15 00:51:36;;;;;;;4.50;1.50;;;21.40;99.90;;;;;;5072441;28;20379;-80
2022/04/15 00:54:04;;;;;;;3.22;1.50;;;21.40;99.90;;;;;;5044831;28;20744;-81
2022/04/15 00:56:35;;;;;;;4.22;1.40;;;21.50;99.90;;;;;;5061764;28;20623;-81
2022/04/15 00:59:04;;;;;;;3.78;1.10;;;21.50;99.90;;;;;;5054189;28;20408;-80
2022/04/15 01:01:33;;;;;;;4.95;0.82;;;21.70;99.90;;;;;;5034020;28;20763;-81
2022/04/15 01:04:03;;;;;;;2.75;0.70;;;21.80;99.90;;;;;;5053086;28;20414;-81
2022/04/15 01:06:31;;;;;;;3.78;0.93;;;21.90;99.90;;;;;;5052046;28;20439;-81
2022/04/15 01:09:00;;;;;;;2.75;0.98;;;21.90;99.90;;;;;;5052170;28;20953;-80
2022/04/15 01:11:28;;;;;;;3.40;1.10;;;22.00;99.90;;;;;;5055427;28;20414;-80
2022/04/15 01:13:59;;;;;;;5.03;1.90;;;22.10;99.90;;;;;;5052105;28;20429;-80
2022/04/15 01:16:29;;;;;;;3.38;0.90;;;22.10;99.90;;;;;;5039667;28;20385;-81
2022/04/15 01:18:56;;;;;;;6.03;1.13;;;22.20;99.90;;;;;;5071576;28;20378;-80
2022/04/15 01:21:25;;;;;;;6.53;1.40;;;22.10;99.90;;;;;;5054325;28;20386;-82
2022/04/15 01:23:54;;;;;;;1.60;0.93;;;22.40;99.90;;;;;;5055129;28;20452;-81
2022/04/15 01:26:21;;;;;;;3.17;0.90;;;22.80;99.90;;;;;;5070854;28;20393;-81
2022/04/15 01:28:48;;;;;;;3.10;1.23;;;23.10;97.90;;;;;;5060027;28;20958;-79
2022/04/15 01:31:15;;;;;;;2.40;0.90;;;23.50;99.60;;;;;;5051733;28;20380;-78
2022/04/15 01:33:42;;;;;;;2.78;0.95;;;24.10;98.40;;;;;;5051472;28;20384;-80
2022/04/15 01:36:13;;;;;;;3.63;1.00;;;25.00;94.90;;;;;;5050828;28;20416;-81
2022/04/15 01:38:40;;;;;;;3.28;0.90;;;25.70;92.20;;;;;;5054818;28;20391;-80
2022/04/15 01:41:07;;;;;;;1.67;0.70;;;26.50;87.40;;;;;;5069981;28;20474;-79
2022/04/15 01:43:34;;;;;;;2.42;1.00;;;27.00;82.90;;;;;;5059699;28;20414;-80
2022/04/15 01:46:00;;;;;;;4.63;0.83;;;27.40;80.30;;;;;;5069256;28;20455;-80
2022/04/15 01:48:27;;;;;;;2.80;0.90;;;27.60;76.50;;;;;;5048805;28;20376;-81
2022/04/15 01:50:54;;;;;;;1.83;0.70;;;27.20;78.90;;;;;;5063495;28;20525;-79
2022/04/15 01:53:24;;;;;;;3.70;0.70;;;27.70;71.20;;;;;;5051354;28;20376;-79
2022/04/15 01:55:51;;;;;;;2.03;0.60;;;28.00;66.10;;;;;;5057464;28;20394;-78
2022/04/15 01:58:18;;;;;;;2.05;0.80;;;28.20;65.50;;;;;;5069403;28;20420;-81
2022/04/15 02:00:45;;;;;;;2.83;0.73;;;28.50;65.70;;;;;;5061644;28;20390;-80
2022/04/15 02:03:12;;;;;;;2.55;0.90;;;28.30;69.60;;;;;;5070728;28;20402;-80
2022/04/15 02:05:39;;;;;;;2.15;0.68;;;28.40;67.20;;;;;;5051652;28;20413;-80
2022/04/15 02:08:07;;;;;;;2.95;1.23;;;28.70;67.30;;;;;;5056792;28;20947;-79
2022/04/15 02:10:34;;;;;;;2.90;0.70;;;28.30;63.70;;;;;;5050951;28;20923;-80
2022/04/15 02:13:01;;;;;;;1.08;0.63;;;28.30;65.70;;;;;;5055736;28;20431;-80
2022/04/15 02:15:28;;;;;;;1.17;0.60;;;28.70;63.50;;;;;;5051074;28;20771;-79
2022/04/15 02:17:55;;;;;;;2.83;0.70;;;29.20;63.10;;;;;;5052081;28;20423;-81
2022/04/15 02:20:22;;;;;;;2.13;0.90;;;29.50;62.40;;;;;;5070266;28;20408;-80
2022/04/15 02:22:50;;;;;;;4.37;1.00;;;29.30;62.40;;;;;;5070290;28;20401;-81
2022/04/15 02:25:17;;;;;;;1.90;0.70;;;29.40;61.60;;;;;;5056408;28;20386;-80
2022/04/15 02:27:44;;;;;;;1.35;0.70;;;29.70;60.40;;;;;;5057386;28;20889;-81
2022/04/15 02:30:11;;;;;;;2.60;0.70;;;29.90;59.80;;;;;;5062567;28;20391;-78
2022/04/15 02:32:38;;;;;;;2.97;0.90;;;29.50;59.70;;;;;;5061730;28;20387;-80
2022/04/15 02:35:08;;;;;;;2.25;0.80;;;29.00;60.20;;;;;;5058242;28;20443;-79
2022/04/15 02:37:35;;;;;;;2.00;0.80;;;28.30;62.10;;;;;;5055834;28;20380;-79
2022/04/15 02:40:02;;;;;;;3.78;0.73;;;27.20;65.00;;;;;;5032416;28;20797;-78
2022/04/15 02:42:29;;;;;;;1.70;0.90;;;27.80;65.20;;;;;;5059389;28;20394;-79
2022/04/15 02:44:56;;;;;;;2.08;0.70;;;28.40;64.40;;;;;;5069987;28;20412;-80
2022/04/15 02:47:23;;;;;;;6.82;2.50;;;28.40;63.60;;;;;;5070457;28;20406;-80
2022/04/15 02:49:51;;;;;;;3.22;1.23;;;29.20;61.40;;;;;;5070459;28;20409;-79
2022/04/15 02:52:18;;;;;;;6.45;2.20;;;30.20;59.90;;;;;;5070398;28;20878;-80
2022/04/15 02:54:44;;;;;;;2.70;1.30;;;31.40;58.10;;;;;;5070394;28;20405;-81
2022/04/15 02:57:11;;;;;;;6.40;2.40;;;32.10;55.40;;;;;;5068503;28;20390;-81
2022/04/15 02:59:38;;;;;;;5.35;2.35;;;32.30;55.70;;;;;;5067405;28;20400;-80
2022/04/15 03:02:05;;;;;;;2.67;1.10;;;32.50;54.50;;;;;;5074863;28;20373;-80
2022/04/15 03:04:33;;;;;;;2.88;0.88;;;32.70;52.50;;;;;;5089966;28;20467;-79
2022/04/15 03:07:00;;;;;;;2.20;0.80;;;32.70;52.00;;;;;;5090047;28;20461;-81
2022/04/15 03:09:27;;;;;;;1.75;0.73;;;32.60;50.90;;;;;;5090092;28;20372;-80
2022/04/15 03:11:54;;;;;;;3.03;0.90;;;32.50;52.00;;;;;;5054534;28;20472;-80
2022/04/15 03:14:21;;;;;;;4.20;1.20;;;33.00;50.80;;;;;;5049602;28;20407;-80
2022/04/15 03:16:48;;;;;;;2.20;0.80;;;32.80;51.60;;;;;;5049926;28;20944;-80
2022/04/15 03:19:15;;;;;;;2.15;0.77;;;32.90;51.30;;;;;;5065979;28;20419;-79
2022/04/15 03:21:42;;;;;;;3.35;0.77;;;33.30;50.30;;;;;;5069323;28;20378;-81
2022/04/15 03:24:09;;;;;;;1.95;0.70;;;33.30;50.40;;;;;;5061600;28;20483;-80
2022/04/15 03:26:35;;;;;;;3.17;1.08;;;33.30;50.50;;;;;;5049963;28;20565;-79
2022/04/15 03:29:02;;;;;;;3.03;0.70;;;33.40;50.50;;;;;;5049572;28;20379;-81
2022/04/15 03:31:29;;;;;;;1.42;0.60;;;33.80;48.80;;;;;;5053257;28;20386;-79
2022/04/15 03:33:56;;;;;;;3.00;1.00;;;33.60;48.90;;;;;;5061071;28;20384;-81
2022/04/15 03:36:23;;;;;;;3.45;0.73;;;32.80;50.40;;;;;;5059643;28;20378;-80
2022/04/15 03:38:50;;;;;;;2.33;0.80;;;31.40;50.70;;;;;;5069087;28;20839;-80
2022/04/15 03:41:17;;;;;;;2.33;0.70;;;30.60;52.90;;;;;;5066767;28;20458;-81
2022/04/15 03:43:44;;;;;;;6.63;0.95;;;31.00;53.70;;;;;;5037153;28;20380;-82
2022/04/15 03:46:11;;;;;;;3.95;0.90;;;32.00;51.70;;;;;;5050286;28;20396;-83
2022/04/15 03:48:38;;;;;;;3.10;0.63;;;32.60;50.60;;;;;;5049688;28;20879;-81
2022/04/15 03:51:07;;;;;;;2.95;1.17;;;33.50;49.40;;;;;;5031144;28;20521;-81
2022/04/15 03:53:35;;;;;;;1.40;0.70;;;33.80;48.60;;;;;;5066328;28;20389;-80
2022/04/15 03:56:02;;;;;;;2.90;0.60;;;33.10;50.00;;;;;;5057582;28;20402;-81
2022/04/15 03:58:29;;;;;;;2.05;0.60;;;33.20;48.90;;;;;;5052888;28;20653;-81
2022/04/15 04:00:56;;;;;;;2.60;0.90;;;32.70;48.40;;;;;;5058752;28;20425;-81
2022/04/15 04:03:22;;;;;;;2.03;0.60;;;31.40;50.70;;;;;;5057742;28;20384;-82
2022/04/15 04:05:49;;;;;;;1.85;0.60;;;31.80;51.50;;;;;;5072744;28;21022;-81
2022/04/15 04:08:16;;;;;;;2.05;0.70;;;32.40;49.30;;;;;;5070581;28;20460;-82
2022/04/15 04:10:43;;;;;;;1.35;0.60;;;32.20;50.10;;;;;;5058340;28;20805;-82
2022/04/15 04:13:10;;;;;;;1.67;0.60;;;30.90;52.90;;;;;;5043091;28;21162;-82
2022/04/15 04:15:37;;;;;;;2.25;0.60;;;31.50;51.70;;;;;;5070631;28;20424;-80
2022/04/15 04:18:04;;;;;;;1.90;0.60;;;32.50;51.00;;;;;;5068408;28;20394;-80
2022/04/15 04:20:32;;;;;;;2.17;0.60;;;33.50;49.00;;;;;;5041877;28;20749;-80
2022/04/15 04:22:59;;;;;;;2.20;0.60;;;34.30;48.20;;;;;;5056890;28;20854;-80
2022/04/15 04:25:26;;;;;;;1.27;0.60;;;34.20;46.20;;;;;;5057292;28;20388;-80
2022/04/15 04:27:54;;;;;;;1.88;0.70;;;34.30;47.90;;;;;;5052714;28;20399;-81
2022/04/15 04:30:21;;;;;;;2.80;0.77;;;34.20;46.80;;;;;;5053937;28;20437;-79
2022/04/15 04:32:52;;;;;;;1.98;0.70;;;33.70;47.10;;;;;;5063624;28;21256;-81
2022/04/15 04:35:21;;;;;;;2.85;0.75;;;32.40;48.50;;;;;;5055324;28;20406;-80
2022/04/15 04:37:48;;;;;;;1.98;0.52;;;32.20;50.20;;;;;;5057961;28;20440;-80
2022/04/15 04:40:16;;;;;;;1.30;0.57;;;32.90;49.50;;;;;;5062502;28;20394;-80
2022/04/15 04:42:45;;;;;;;1.75;0.60;;;33.50;47.90;;;;;;5063547;28;20415;-80
2022/04/15 04:45:12;;;;;;;1.48;0.60;;;34.20;46.70;;;;;;5052216;28;20387;-79
2022/04/15 04:47:46;;;;;;;0.80;0.50;;;35.00;45.40;;;;;;5067774;28;20877;-82
2022/04/15 04:50:13;;;;;;;2.20;0.70;;;35.50;44.50;;;;;;5052723;28;20716;-80
2022/04/15 04:52:41;;;;;;;1.60;0.50;;;35.70;44.30;;;;;;5058907;28;20381;-81
2022/04/15 04:55:09;;;;;;;2.53;0.80;;;34.70;45.50;;;;;;5072161;28;20401;-81
2022/04/15 04:57:38;;;;;;;2.63;0.80;;;33.60;47.40;;;;;;5070336;28;20405;-81
2022/04/15 05:00:07;;;;;;;1.60;0.60;;;33.50;47.80;;;;;;5059672;28;20697;-78
2022/04/15 05:02:34;;;;;;;3.00;0.90;;;34.20;46.00;;;;;;5069428;28;20389;-80
2022/04/15 05:05:01;;;;;;;0.85;0.60;;;34.20;47.10;;;;;;5055954;28;20948;-81
2022/04/15 05:07:28;;;;;;;1.85;0.63;;;34.30;46.90;;;;;;5052083;28;20395;-81
2022/04/15 05:09:55;;;;;;;2.57;0.77;;;34.50;45.60;;;;;;5051601;28;20383;-81
2022/04/15 05:12:22;;;;;;;1.60;0.60;;;34.40;46.30;;;;;;5062637;28;20509;-81
2022/04/15 05:14:49;;;;;;;1.30;0.60;;;34.50;45.50;;;;;;5053640;28;20378;-82
2022/04/15 05:17:16;;;;;;;1.65;0.75;;;33.10;47.00;;;;;;5068454;28;20389;-83
2022/04/15 05:19:45;;;;;;;2.10;0.70;;;32.50;48.00;;;;;;5071338;28;20394;-81
2022/04/15 05:22:13;;;;;;;3.15;0.60;;;32.00;48.40;;;;;;5071907;28;20374;-82
2022/04/15 05:24:40;;;;;;;1.75;0.50;;;31.60;48.90;;;;;;5066020;28;20393;-82
2022/04/15 05:27:07;;;;;;;1.13;0.50;;;30.90;49.40;;;;;;5071532;28;20402;-82
2022/04/15 05:29:35;;;;;;;1.65;0.60;;;30.10;50.70;;;;;;5055415;28;20388;-83
2022/04/15 05:32:03;;;;;;;1.97;0.60;;;29.30;51.40;;;;;;5066820;28;20564;-82
2022/04/15 05:34:30;;;;;;;1.60;0.60;;;28.30;53.60;;;;;;5071675;28;20366;-81
2022/04/15 05:36:57;;;;;;;3.03;0.70;;;27.10;56.20;;;;;;5071600;28;20382;-82
2022/04/15 05:39:24;;;;;;;2.17;0.80;;;26.30;57.90;;;;;;5071583;28;20378;-82
2022/04/15 05:41:51;;;;;;;2.65;0.70;;;25.80;59.10;;;;;;5069922;28;20417;-81
2022/04/15 05:44:18;;;;;;;2.35;0.90;;;25.50;60.80;;;;;;5062032;28;20388;-82
2022/04/15 05:46:45;;;;;;;4.43;1.50;;;25.20;61.90;;;;;;5065776;28;20905;-81
2022/04/15 05:49:15;;;;;;;3.40;1.17;;;24.80;63.00;;;;;;5051084;28;20405;-82
2022/04/15 05:51:42;;;;;;;2.70;1.08;;;24.50;64.40;;;;;;5052854;28;20415;-79
2022/04/15 05:54:10;;;;;;;1.80;0.80;;;24.40;65.50;;;;;;5065924;28;20432;-81
2022/04/15 05:56:37;;;;;;;2.65;0.90;;;24.30;66.00;;;;;;5068835;28;20368;-82
2022/04/15 05:59:05;;;;;;;2.60;0.80;;;24.30;66.20;;;;;;5060484;28;20452;-81
2022/04/15 06:01:33;;;;;;;3.13;0.80;;;24.20;66.20;;;;;;5070363;28;20401;-83
2022/04/15 06:04:00;;;;;;;2.00;0.97;;;24.10;66.10;;;;;;5052426;28;20396;-80
2022/04/15 06:06:27;;;;;;;2.42;0.85;;;24.00;66.60;;;;;;5050915;28;20440;-81
2022/04/15 06:08:54;;;;;;;2.70;0.70;;;24.00;67.40;;;;;;5051978;28;20919;-82
2022/04/15 06:11:21;;;;;;;1.75;0.80;;;23.90;67.40;;;;;;5050863;28;20402;-82
2022/04/15 06:13:49;;;;;;;2.65;0.80;;;23.90;67.70;;;;;;5063759;28;20420;-81
2022/04/15 06:16:17;;;;;;;2.13;0.65;;;23.80;68.00;;;;;;5066601;28;20384;-79
2022/04/15 06:18:44;;;;;;;3.17;0.70;;;23.80;68.50;;;;;;5061148;28;20386;-81
2022/04/15 06:21:11;;;;;;;4.10;0.70;;;23.80;69.30;;;;;;5068658;28;20885;-83
2022/04/15 06:23:38;;;;;;;1.73;0.80;;;23.70;70.10;;;;;;5038069;28;20771;-80
2022/04/15 06:26:09;;;;;;;1.50;0.68;;;23.80;70.10;;;;;;5050688;28;20391;-81
2022/04/15 06:28:36;;;;;;;3.65;1.00;;;23.70;70.60;;;;;;5050566;28;20506;-87
2022/04/15 06:31:03;;;;;;;3.30;1.25;;;23.70;71.10;;;;;;5050189;28;20368;-82
2022/04/15 06:33:30;;;;;;;8.38;2.80;;;23.60;70.90;;;;;;5050576;28;20461;-80
2022/04/15 06:35:59;;;;;;;4.70;1.35;;;23.50;71.70;;;;;;5066176;28;20457;-81
2022/04/15 06:38:26;;;;;;;2.15;1.10;;;23.50;72.80;;;;;;5070590;28;20728;-81
2022/04/15 06:40:53;;;;;;;4.10;1.40;;;23.50;73.70;;;;;;5053675;28;20755;-82
2022/04/15 06:43:20;;;;;;;2.60;1.07;;;23.40;73.40;;;;;;5050565;28;20380;-84
2022/04/15 06:45:47;;;;;;;3.97;0.80;;;23.40;74.40;;;;;;5050129;28;20375;-84
2022/04/15 06:48:13;;;;;;;2.15;0.70;;;23.30;76.10;;;;;;5050140;28;20438;-81
2022/04/15 06:50:40;;;;;;;3.03;0.90;;;23.20;75.00;;;;;;5063512;28;20405;-81
2022/04/15 06:53:07;;;;;;;3.42;0.80;;;23.10;77.50;;;;;;5068233;28;20366;-82
2022/04/15 06:55:35;;;;;;;2.83;1.00;;;23.10;78.30;;;;;;5059636;28;20398;-82
2022/04/15 06:58:02;;;;;;;2.65;0.95;;;22.70;80.00;;;;;;5050023;28;20384;-81
2022/04/15 07:00:29;;;;;;;3.10;1.40;;;22.80;82.40;;;;;;5049844;28;20380;-83
2022/04/15 07:02:56;;;;;;;29.50;23.13;;;22.80;84.90;;;;;;5057191;28;20964;-79
2022/04/15 07:05:23;;;;;;;59.53;39.20;;;22.70;88.90;;;;;;5056076;28;20399;-80
2022/04/15 07:07:50;;;;;;;17.98;14.68;;;22.50;89.90;;;;;;5051281;28;20403;-80
2022/04/15 07:10:18;;;;;;;16.42;12.45;;;22.40;90.20;;;;;;5051468;28;20379;-82
2022/04/15 07:12:48;;;;;;;15.03;12.27;;;22.40;90.00;;;;;;5050877;28;20380;-80
2022/04/15 07:15:15;;;;;;;15.57;13.43;;;22.20;90.40;;;;;;5061194;28;20384;-81
2022/04/15 07:17:42;;;;;;;13.93;12.40;;;22.10;91.30;;;;;;5035732;28;20744;-81
2022/04/15 07:20:09;;;;;;;18.13;11.93;;;22.00;92.10;;;;;;5050833;28;20395;-82
2022/04/15 07:22:36;;;;;;;14.98;9.05;;;21.80;93.10;;;;;;5050284;28;20754;-82
2022/04/15 07:25:04;;;;;;;8.90;5.20;;;21.70;93.70;;;;;;5050388;28;20736;-81
2022/04/15 07:27:31;;;;;;;10.30;5.32;;;21.60;94.30;;;;;;5050810;28;20411;-79
2022/04/15 07:29:59;;;;;;;7.00;4.40;;;21.40;95.00;;;;;;5054395;28;20755;-78
2022/04/15 07:32:28;;;;;;;16.35;11.82;;;21.30;95.90;;;;;;5064786;28;20814;-82
2022/04/15 07:34:55;;;;;;;17.33;10.73;;;21.20;96.90;;;;;;5066435;28;20379;-81
2022/04/15 07:37:22;;;;;;;6.75;4.35;;;21.10;97.80;;;;;;5067108;28;20826;-79
2022/04/15 07:39:50;;;;;;;7.77;3.80;;;21.10;98.80;;;;;;5074453;28;20430;-82
2022/04/15 07:42:17;;;;;;;9.48;5.43;;;21.00;99.90;;;;;;5065167;28;20398;-87
2022/04/15 07:44:44;;;;;;;9.13;5.78;;;21.00;99.90;;;;;;5054466;28;20745;-80
2022/04/15 07:47:11;;;;;;;8.27;4.57;;;20.90;99.90;;;;;;5052282;28;20405;-82
2022/04/15 07:49:39;;;;;;;7.25;3.60;;;20.90;99.90;;;;;;5073234;28;20478;-82
2022/04/15 07:52:06;;;;;;;5.50;2.80;;;20.90;99.90;;;;;;5071852;28;20389;-82
2022/04/15 07:54:34;;;;;;;5.05;2.13;;;20.80;99.90;;;;;;5067494;28;20473;-82
2022/04/15 07:57:01;;;;;;;5.73;2.40;;;20.80;99.90;;;;;;5072935;28;20848;-82
2022/04/15 07:59:29;;;;;;;5.85;1.92;;;20.80;99.90;;;;;;5073293;28;20365;-83
2022/04/15 08:01:58;;;;;;;4.30;1.60;;;20.70;99.90;;;;;;5062851;28;20390;-83
2022/04/15 08:04:26;;;;;;;4.93;1.70;;;20.70;99.90;;;;;;5072634;28;20785;-82
2022/04/15 08:06:53;;;;;;;5.57;2.00;;;20.60;99.90;;;;;;5071857;28;20398;-83
2022/04/15 08:09:21;;;;;;;5.72;1.90;;;20.20;99.90;;;;;;5035443;28;20728;-84
2022/04/15 08:11:49;;;;;;;6.88;2.63;;;20.50;99.90;;;;;;5052686;28;20395;-81
2022/04/15 08:14:16;;;;;;;6.80;2.95;;;20.50;99.90;;;;;;5053120;28;20390;-83
2022/04/15 08:16:43;;;;;;;6.63;3.00;;;20.40;99.90;;;;;;5070290;28;20382;-88
2022/04/15 08:19:10;;;;;;;6.50;2.85;;;20.40;99.90;;;;;;5073057;28;20957;-82
2022/04/15 08:21:37;;;;;;;6.32;1.88;;;20.20;99.90;;;;;;5072575;28;20461;-87
2022/04/15 08:24:05;;;;;;;4.28;1.40;;;20.30;99.90;;;;;;5070385;28;22107;-81
2022/04/15 08:26:32;;;;;;;4.00;1.20;;;20.20;99.90;;;;;;5063540;28;20403;-81
2022/04/15 08:28:59;;;;;;;4.40;1.45;;;20.20;99.90;;;;;;5053821;28;20381;-80
2022/04/15 08:31:26;;;;;;;4.30;1.50;;;20.20;99.90;;;;;;5054250;28;20906;-79
2022/04/15 08:33:53;;;;;;;6.55;1.73;;;20.20;99.90;;;;;;5069095;28;20385;-81
2022/04/15 08:36:20;;;;;;;6.25;1.40;;;20.20;99.90;;;;;;5063172;28;20402;-80
2022/04/15 08:38:47;;;;;;;6.20;1.92;;;20.20;99.90;;;;;;5072672;28;20412;-80
2022/04/15 08:41:14;;;;;;;4.60;1.77;;;20.10;99.90;;;;;;5065132;28;20378;-81
2022/04/15 08:43:42;;;;;;;3.38;1.60;;;20.00;99.90;;;;;;5071850;28;20422;-82
2022/04/15 08:46:12;;;;;;;4.60;1.60;;;19.90;99.90;;;;;;5059424;28;20431;-79
2022/04/15 08:48:39;;;;;;;7.22;1.90;;;19.80;99.90;;;;;;5052361;28;20463;-81
2022/04/15 08:51:07;;;;;;;8.48;1.63;;;19.80;99.90;;;;;;5052112;28;20851;-82
2022/04/15 08:53:35;;;;;;;4.88;1.55;;;19.80;99.90;;;;;;5052274;28;20388;-82
2022/04/15 08:56:05;;;;;;;6.45;2.40;;;19.70;99.90;;;;;;5051723;28;20400;-80
2022/04/15 08:58:32;;;;;;;25.63;15.23;;;19.80;99.90;;;;;;5054876;28;20395;-81
2022/04/15 09:00:59;;;;;;;23.45;12.05;;;19.70;99.90;;;;;;5056362;28;20397;-82
2022/04/15 09:03:26;;;;;;;35.85;21.45;;;19.70;99.90;;;;;;5060308;28;20387;-81
2022/04/15 09:05:53;;;;;;;7.28;3.88;;;19.80;99.90;;;;;;5052888;28;20434;-81
2022/04/15 09:08:20;;;;;;;6.30;2.50;;;19.70;99.90;;;;;;5052583;28;20871;-81
2022/04/15 09:10:56;;;;;;;7.18;2.30;;;19.70;99.90;;;;;;5051981;28;20364;-80
2022/04/15 09:13:31;;;;;;;8.82;4.35;;;19.70;99.90;;;;;;5054896;28;20398;-81
2022/04/15 09:16:01;;;;;;;7.38;3.33;;;19.60;99.90;;;;;;5066368;28;20461;-81
2022/04/15 09:18:39;;;;;;;5.20;1.92;;;19.50;99.90;;;;;;5056732;28;20382;-80
2022/04/15 09:21:27;;;;;;;5.72;3.22;;;19.50;99.90;;;;;;5058342;28;20366;-81
2022/04/15 09:23:56;;;;;;;5.68;2.33;;;19.40;99.90;;;;;;5066533;28;20452;-82
2022/04/15 09:26:24;;;;;;;6.83;2.73;;;19.30;99.90;;;;;;5033656;28;20806;-81
2022/04/15 09:28:53;;;;;;;4.22;1.90;;;19.30;99.90;;;;;;5068692;28;20396;-81
2022/04/15 09:31:22;;;;;;;7.70;4.13;;;19.30;99.90;;;;;;5071720;28;20374;-81
2022/04/15 09:34:00;;;;;;;8.63;4.18;;;19.20;99.90;;;;;;5071142;28;20390;-83
2022/04/15 09:36:37;;;;;;;6.22;1.73;;;19.10;99.90;;;;;;5058866;28;20459;-83
2022/04/15 09:39:10;;;;;;;4.53;1.77;;;19.10;99.90;;;;;;5037835;28;20431;-82
2022/04/15 09:41:54;;;;;;;5.45;2.05;;;19.00;99.90;;;;;;5058339;28;20407;-78
2022/04/15 09:44:32;;;;;;;5.70;2.33;;;18.90;99.90;;;;;;5069684;28;20438;-78
2022/04/15 09:47:04;;;;;;;7.35;2.67;;;18.90;99.90;;;;;;5070371;28;20437;-79
2022/04/15 09:49:34;;;;;;;7.95;2.30;;;18.80;99.90;;;;;;5070440;28;20382;-79
2022/04/15 09:52:03;;;;;;;6.45;2.10;;;18.80;99.90;;;;;;5064923;28;20890;-80
2022/04/15 09:54:31;;;;;;;4.57;2.07;;;18.70;99.90;;;;;;5052326;28;20384;-78
2022/04/15 09:56:59;;;;;;;6.70;3.15;;;18.60;99.90;;;;;;5051232;28;20391;-80
2022/04/15 09:59:29;;;;;;;5.90;2.63;;;18.60;99.90;;;;;;5051286;28;20380;-79
2022/04/15 10:01:58;;;;;;;6.70;3.28;;;18.60;99.90;;;;;;5050826;28;20372;-81
2022/04/15 10:04:26;;;;;;;9.55;3.47;;;18.50;99.90;;;;;;5050868;28;20392;-80
2022/04/15 10:06:54;;;;;;;6.93;2.70;;;18.50;99.90;;;;;;5050657;28;20414;-80
2022/04/15 10:09:21;;;;;;;6.75;2.72;;;18.50;99.90;;;;;;5033255;28;20454;-82
2022/04/15 10:11:49;;;;;;;7.18;2.45;;;18.50;99.90;;;;;;5050878;28;20375;-79
2022/04/15 10:14:19;;;;;;;5.75;2.40;;;18.40;99.90;;;;;;5050822;28;20549;-79
2022/04/15 10:16:46;;;;;;;4.80;2.20;;;18.40;99.90;;;;;;5050723;28;20383;-79
2022/04/15 10:19:14;;;;;;;5.60;2.33;;;18.30;99.90;;;;;;5050709;28;20925;-81
2022/04/15 10:21:44;;;;;;;7.90;3.55;;;18.30;99.90;;;;;;5051230;28;20375;-81
2022/04/15 10:24:12;;;;;;;6.70;2.33;;;18.20;99.90;;;;;;5062897;28;20397;-81
2022/04/15 10:26:45;;;;;;;5.70;2.10;;;18.20;99.90;;;;;;5053066;28;20398;-78
2022/04/15 10:29:13;;;;;;;4.40;1.90;;;18.10;99.90;;;;;;5071055;28;21308;-82
2022/04/15 10:31:54;;;;;;;5.03;2.10;;;18.10;99.90;;;;;;5058852;28;20375;-82
2022/04/15 10:34:22;;;;;;;5.78;2.03;;;18.00;99.90;;;;;;5069347;28;20393;-83
2022/04/15 10:36:52;;;;;;;5.18;2.85;;;17.90;99.90;;;;;;5066042;28;20377;-82
2022/04/15 10:39:26;;;;;;;6.85;2.55;;;18.00;99.90;;;;;;5032791;28;20397;-82
2022/04/15 10:41:58;;;;;;;6.85;2.10;;;17.80;99.90;;;;;;5054483;28;20374;-81
2022/04/15 10:44:39;;;;;;;5.72;2.15;;;17.80;99.90;;;;;;5056873;28;20387;-82
2022/04/15 10:47:11;;;;;;;4.55;2.20;;;17.80;99.90;;;;;;5070204;28;20398;-82
2022/04/15 10:49:54;;;;;;;4.70;1.75;;;17.80;99.90;;;;;;5058712;28;20445;-80
2022/04/15 10:52:25;;;;;;;4.97;2.00;;;17.80;99.90;;;;;;5050328;28;20435;-82
2022/04/15 10:55:03;;;;;;;4.87;2.00;;;17.70;99.90;;;;;;5058479;28;20445;-81
2022/04/15 10:57:40;;;;;;;6.57;2.20;;;17.60;99.90;;;;;;5050278;28;20363;-81
2022/04/15 11:03:01;;;;;;;7.43;2.30;;;17.50;99.90;;;;;;5050384;28;20482;-80
2022/04/15 11:05:44;;;;;;;5.43;2.05;;;17.50;99.90;;;;;;5058595;28;20405;-79
2022/04/15 11:08:22;;;;;;;6.20;2.95;;;17.50;99.90;;;;;;5074243;28;20893;-81
2022/04/15 11:10:55;;;;;;;6.38;2.50;;;17.40;99.90;;;;;;5074064;28;20469;-81
2022/04/15 11:13:34;;;;;;;8.43;2.75;;;17.40;99.90;;;;;;5074202;28;20376;-79
2022/04/15 11:16:14;;;;;;;6.30;2.50;;;17.40;99.90;;;;;;5074285;28;20390;-81
2022/04/15 11:19:00;;;;;;;5.53;2.00;;;17.40;99.90;;;;;;5074158;28;20366;-81
2022/04/15 11:21:37;;;;;;;6.13;2.30;;;17.30;99.90;;;;;;5054064;28;20410;-81
2022/04/15 11:24:05;;;;;;;7.85;2.40;;;17.30;99.90;;;;;;5053959;28;20390;-80
2022/04/15 11:26:34;;;;;;;4.97;2.55;;;17.30;99.90;;;;;;5053830;28;20790;-78
2022/04/15 11:29:04;;;;;;;6.38;3.53;;;17.30;99.90;;;;;;5053887;28;20378;-81
2022/04/15 11:31:36;;;;;;;4.10;2.17;;;17.30;99.90;;;;;;5053511;28;20782;-80
2022/04/15 11:34:16;;;;;;;4.30;1.97;;;17.20;99.90;;;;;;5064358;28;20380;-81
2022/04/15 11:36:53;;;;;;;5.38;2.30;;;17.20;99.90;;;;;;5073670;28;20373;-81
2022/04/15 11:39:25;;;;;;;8.90;4.00;;;17.20;99.90;;;;;;5071959;28;20378;-80
2022/04/15 11:41:54;;;;;;;4.80;2.67;;;17.20;99.90;;;;;;5073599;28;20377;-80
2022/04/15 11:44:22;;;;;;;5.68;2.17;;;17.20;99.90;;;;;;5073630;28;20497;-81
2022/04/15 11:46:52;;;;;;;6.22;2.20;;;17.20;99.90;;;;;;5073617;28;20440;-82
2022/04/15 11:49:27;;;;;;;4.90;2.22;;;17.20;99.90;;;;;;5073113;28;20382;-80
2022/04/15 11:51:56;;;;;;;5.00;2.20;;;17.20;99.90;;;;;;5073362;28;20382;-81
2022/04/15 11:54:24;;;;;;;5.65;2.28;;;17.20;99.90;;;;;;5061960;28;20387;-81
2022/04/15 11:56:54;;;;;;;5.43;2.00;;;17.20;99.90;;;;;;5035416;28;20479;-81
2022/04/15 11:59:21;;;;;;;6.70;1.90;;;17.30;99.90;;;;;;5053348;28;20890;-81
2022/04/15 12:01:48;;;;;;;7.20;2.00;;;17.30;99.90;;;;;;5053443;28;20414;-79
2022/04/15 12:04:17;;;;;;;8.43;2.03;;;17.20;99.90;;;;;;5052799;28;20498;-81
2022/04/15 12:06:44;;;;;;;6.13;2.97;;;17.30;99.90;;;;;;5072850;28;20414;-81
2022/04/15 12:09:14;;;;;;;8.63;5.22;;;17.20;99.90;;;;;;5071897;28;20726;-80
2022/04/15 12:11:43;;;;;;;7.07;3.65;;;17.20;99.90;;;;;;5093074;28;20387;-80
2022/04/15 12:14:12;;;;;;;6.30;2.47;;;17.20;99.90;;;;;;5061579;28;20392;-78
2022/04/15 12:16:40;;;;;;;7.25;2.30;;;17.20;99.90;;;;;;5052510;28;20430;-80
2022/04/15 12:19:07;;;;;;;4.38;2.00;;;17.20;99.90;;;;;;5051697;28;20379;-82
2022/04/15 12:21:36;;;;;;;6.68;2.33;;;17.20;99.90;;;;;;5041744;28;20715;-80
2022/04/15 12:24:02;;;;;;;4.45;2.20;;;17.10;99.90;;;;;;5073103;28;20435;-77
2022/04/15 12:26:44;;;;;;;8.05;2.47;;;17.10;99.90;;;;;;5072706;28;20416;-80
2022/04/15 12:32:17;;;;;;;8.30;2.50;;;17.10;99.90;;;;;;5073036;28;20373;-81
2022/04/15 12:34:45;;;;;;;5.55;2.33;;;17.10;99.90;;;;;;5052657;28;20437;-80
2022/04/15 12:37:53;;;;;;;5.80;2.28;;;17.10;99.90;;;;;;5053673;28;20388;-81
2022/04/15 12:40:20;;;;;;;5.90;2.25;;;17.10;99.90;;;;;;5052399;28;20383;-81
2022/04/15 12:42:53;;;;;;;5.95;2.45;;;17.10;99.90;;;;;;5052766;28;20376;-80
2022/04/15 12:45:26;;;;;;;7.15;2.30;;;17.10;99.90;;;;;;5063467;28;20394;-80
2022/04/15 12:48:01;;;;;;;7.10;2.47;;;17.10;99.90;;;;;;5072332;28;20489;-80
2022/04/15 12:50:31;;;;;;;7.05;2.70;;;17.10;99.90;;;;;;5072468;28;20857;-80
2022/04/15 12:52:58;;;;;;;6.37;2.80;;;17.00;99.90;;;;;;5070783;28;20378;-82
2022/04/15 12:55:27;;;;;;;5.53;2.50;;;17.00;99.90;;;;;;5074427;28;20370;-81
2022/04/15 12:57:55;;;;;;;4.55;2.47;;;17.00;99.90;;;;;;5072271;28;20371;-80
2022/04/15 13:00:22;;;;;;;5.53;2.58;;;17.00;99.90;;;;;;5072330;28;20378;-80